sensor_id;sensor_type;location;lat;lon;timestamp;temperature;humidity
76857;DHT22;69705;44.686;37.628;2024-01-07T00:00:22;11.99;85.56
76857;DHT22;69705;44.686;37.628;2024-01-07T00:02:49;11.99;85.52
76857;DHT22;69705;44.686;37.628;2024-01-07T00:05:16;12.00;85.77
76857;DHT22;69705;44.686;37.628;2024-01-07T00:07:43;11.98;86.08
76857;DHT22;69705;44.686;37.628;2024-01-07T00:10:09;11.97;86.04
76857;DHT22;69705;44.686;37.628;2024-01-07T00:12:36;11.97;86.11
76857;DHT22;69705;44.686;37.628;2024-01-07T00:15:03;11.99;86.00
76857;DHT22;69705;44.686;37.628;2024-01-07T00:17:30;11.98;86.11
76857;DHT22;69705;44.686;37.628;2024-01-07T00:19:56;11.98;86.16
76857;DHT22;69705;44.686;37.628;2024-01-07T00:22:23;11.96;86.09
76857;DHT22;69705;44.686;37.628;2024-01-07T00:24:50;11.96;86.38
76857;DHT22;69705;44.686;37.628;2024-01-07T00:27:16;11.97;86.05
76857;DHT22;69705;44.686;37.628;2024-01-07T00:29:43;11.96;86.76
76857;DHT22;69705;44.686;37.628;2024-01-07T00:32:11;11.97;86.55
76857;DHT22;69705;44.686;37.628;2024-01-07T00:34:38;11.97;87.13
76857;DHT22;69705;44.686;37.628;2024-01-07T00:37:05;11.97;87.56
76857;DHT22;69705;44.686;37.628;2024-01-07T00:39:31;11.96;87.51
76857;DHT22;69705;44.686;37.628;2024-01-07T00:41:58;11.94;87.61
76857;DHT22;69705;44.686;37.628;2024-01-07T00:44:25;11.93;87.83
76857;DHT22;69705;44.686;37.628;2024-01-07T00:46:52;11.90;87.93
76857;DHT22;69705;44.686;37.628;2024-01-07T00:49:19;11.90;87.91
76857;DHT22;69705;44.686;37.628;2024-01-07T00:51:46;11.89;88.36
76857;DHT22;69705;44.686;37.628;2024-01-07T00:54:13;11.88;88.09
76857;DHT22;69705;44.686;37.628;2024-01-07T00:56:40;11.89;87.89
76857;DHT22;69705;44.686;37.628;2024-01-07T00:59:08;11.90;88.40
76857;DHT22;69705;44.686;37.628;2024-01-07T01:01:35;11.89;88.54
76857;DHT22;69705;44.686;37.628;2024-01-07T01:04:02;11.89;88.80
76857;DHT22;69705;44.686;37.628;2024-01-07T01:06:29;11.87;88.83
76857;DHT22;69705;44.686;37.628;2024-01-07T01:08:56;11.86;88.63
76857;DHT22;69705;44.686;37.628;2024-01-07T01:11:23;11.87;88.44
76857;DHT22;69705;44.686;37.628;2024-01-07T01:13:50;11.86;88.52
76857;DHT22;69705;44.686;37.628;2024-01-07T01:16:17;11.86;88.76
76857;DHT22;69705;44.686;37.628;2024-01-07T01:18:44;11.86;88.86
76857;DHT22;69705;44.686;37.628;2024-01-07T01:21:11;11.85;88.52
76857;DHT22;69705;44.686;37.628;2024-01-07T01:23:38;11.84;88.38
76857;DHT22;69705;44.686;37.628;2024-01-07T01:26:05;11.86;88.32
76857;DHT22;69705;44.686;37.628;2024-01-07T01:28:32;11.85;88.67
76857;DHT22;69705;44.686;37.628;2024-01-07T01:30:59;11.87;88.35
76857;DHT22;69705;44.686;37.628;2024-01-07T01:33:27;11.86;88.02
76857;DHT22;69705;44.686;37.628;2024-01-07T01:35:54;11.86;87.52
76857;DHT22;69705;44.686;37.628;2024-01-07T01:38:21;11.88;87.84
76857;DHT22;69705;44.686;37.628;2024-01-07T01:40:54;11.89;87.67
76857;DHT22;69705;44.686;37.628;2024-01-07T01:43:25;11.87;87.70
76857;DHT22;69705;44.686;37.628;2024-01-07T01:45:54;11.88;87.84
76857;DHT22;69705;44.686;37.628;2024-01-07T01:48:22;11.85;88.13
76857;DHT22;69705;44.686;37.628;2024-01-07T01:50:49;11.86;87.87
76857;DHT22;69705;44.686;37.628;2024-01-07T01:53:16;11.87;87.78
76857;DHT22;69705;44.686;37.628;2024-01-07T01:55:43;11.86;88.06
76857;DHT22;69705;44.686;37.628;2024-01-07T01:58:10;11.85;88.15
76857;DHT22;69705;44.686;37.628;2024-01-07T02:00:38;11.86;88.44
76857;DHT22;69705;44.686;37.628;2024-01-07T02:03:05;11.84;88.19
76857;DHT22;69705;44.686;37.628;2024-01-07T02:05:32;11.84;88.17
76857;DHT22;69705;44.686;37.628;2024-01-07T02:07:59;11.84;88.35
76857;DHT22;69705;44.686;37.628;2024-01-07T02:10:26;11.82;88.48
76857;DHT22;69705;44.686;37.628;2024-01-07T02:12:53;11.81;88.39
76857;DHT22;69705;44.686;37.628;2024-01-07T02:16:21;11.79;88.27
76857;DHT22;69705;44.686;37.628;2024-01-07T02:18:48;11.78;88.33
76857;DHT22;69705;44.686;37.628;2024-01-07T02:21:15;11.77;88.39
76857;DHT22;69705;44.686;37.628;2024-01-07T02:23:44;11.79;88.22
76857;DHT22;69705;44.686;37.628;2024-01-07T02:26:10;11.79;88.25
76857;DHT22;69705;44.686;37.628;2024-01-07T02:28:37;11.79;88.42
76857;DHT22;69705;44.686;37.628;2024-01-07T02:31:05;11.77;88.41
76857;DHT22;69705;44.686;37.628;2024-01-07T02:33:32;11.79;88.51
76857;DHT22;69705;44.686;37.628;2024-01-07T02:35:59;11.78;88.42
76857;DHT22;69705;44.686;37.628;2024-01-07T02:38:25;11.79;88.54
76857;DHT22;69705;44.686;37.628;2024-01-07T02:40:52;11.81;88.64
76857;DHT22;69705;44.686;37.628;2024-01-07T02:43:19;11.81;88.51
76857;DHT22;69705;44.686;37.628;2024-01-07T02:45:45;11.81;88.64
76857;DHT22;69705;44.686;37.628;2024-01-07T02:48:12;11.79;88.59
76857;DHT22;69705;44.686;37.628;2024-01-07T02:50:39;11.81;88.63
76857;DHT22;69705;44.686;37.628;2024-01-07T02:53:06;11.78;88.55
76857;DHT22;69705;44.686;37.628;2024-01-07T02:55:34;11.78;88.14
76857;DHT22;69705;44.686;37.628;2024-01-07T02:58:01;11.82;88.16
76857;DHT22;69705;44.686;37.628;2024-01-07T03:00:28;11.82;88.28
76857;DHT22;69705;44.686;37.628;2024-01-07T03:02:54;11.79;88.37
76857;DHT22;69705;44.686;37.628;2024-01-07T03:05:21;11.81;88.31
76857;DHT22;69705;44.686;37.628;2024-01-07T03:07:48;11.82;87.95
76857;DHT22;69705;44.686;37.628;2024-01-07T03:10:15;11.83;88.19
76857;DHT22;69705;44.686;37.628;2024-01-07T03:12:41;11.82;88.32
76857;DHT22;69705;44.686;37.628;2024-01-07T03:15:08;11.84;88.24
76857;DHT22;69705;44.686;37.628;2024-01-07T03:17:35;11.82;88.44
76857;DHT22;69705;44.686;37.628;2024-01-07T03:20:02;11.78;88.62
76857;DHT22;69705;44.686;37.628;2024-01-07T03:22:29;11.78;88.63
76857;DHT22;69705;44.686;37.628;2024-01-07T03:24:56;11.75;88.16
76857;DHT22;69705;44.686;37.628;2024-01-07T03:27:22;11.75;88.32
76857;DHT22;69705;44.686;37.628;2024-01-07T03:29:50;11.76;88.38
76857;DHT22;69705;44.686;37.628;2024-01-07T03:32:17;11.74;88.35
76857;DHT22;69705;44.686;37.628;2024-01-07T03:34:44;11.75;88.42
76857;DHT22;69705;44.686;37.628;2024-01-07T03:37:11;11.76;88.42
76857;DHT22;69705;44.686;37.628;2024-01-07T03:39:37;11.76;88.72
76857;DHT22;69705;44.686;37.628;2024-01-07T03:42:05;11.76;88.94
76857;DHT22;69705;44.686;37.628;2024-01-07T03:44:38;11.76;88.89
76857;DHT22;69705;44.686;37.628;2024-01-07T03:47:05;11.76;88.87
76857;DHT22;69705;44.686;37.628;2024-01-07T03:49:32;11.75;88.51
76857;DHT22;69705;44.686;37.628;2024-01-07T03:51:59;11.75;88.80
76857;DHT22;69705;44.686;37.628;2024-01-07T03:54:26;11.74;88.71
76857;DHT22;69705;44.686;37.628;2024-01-07T03:56:53;11.73;88.71
76857;DHT22;69705;44.686;37.628;2024-01-07T03:59:19;11.73;88.63
76857;DHT22;69705;44.686;37.628;2024-01-07T04:01:48;11.74;88.54
76857;DHT22;69705;44.686;37.628;2024-01-07T04:04:15;11.76;88.66
76857;DHT22;69705;44.686;37.628;2024-01-07T04:06:42;11.77;88.46
76857;DHT22;69705;44.686;37.628;2024-01-07T04:09:09;11.77;88.54
76857;DHT22;69705;44.686;37.628;2024-01-07T04:11:42;11.75;88.52
76857;DHT22;69705;44.686;37.628;2024-01-07T04:14:09;11.78;88.49
76857;DHT22;69705;44.686;37.628;2024-01-07T04:16:36;11.77;88.36
76857;DHT22;69705;44.686;37.628;2024-01-07T04:19:03;11.76;88.83
76857;DHT22;69705;44.686;37.628;2024-01-07T04:21:29;11.77;88.89
76857;DHT22;69705;44.686;37.628;2024-01-07T04:23:56;11.75;89.02
76857;DHT22;69705;44.686;37.628;2024-01-07T04:26:23;11.76;89.35
76857;DHT22;69705;44.686;37.628;2024-01-07T04:28:49;11.76;89.39
76857;DHT22;69705;44.686;37.628;2024-01-07T04:31:16;11.75;89.35
76857;DHT22;69705;44.686;37.628;2024-01-07T04:33:44;11.73;89.50
76857;DHT22;69705;44.686;37.628;2024-01-07T04:36:11;11.75;89.54
76857;DHT22;69705;44.686;37.628;2024-01-07T04:38:38;11.74;89.41
76857;DHT22;69705;44.686;37.628;2024-01-07T04:41:04;11.74;89.42
76857;DHT22;69705;44.686;37.628;2024-01-07T04:43:34;11.72;89.42
76857;DHT22;69705;44.686;37.628;2024-01-07T04:46:02;11.74;89.45
76857;DHT22;69705;44.686;37.628;2024-01-07T04:48:29;11.73;89.66
76857;DHT22;69705;44.686;37.628;2024-01-07T04:50:58;11.73;89.48
76857;DHT22;69705;44.686;37.628;2024-01-07T04:53:25;11.74;89.28
76857;DHT22;69705;44.686;37.628;2024-01-07T04:55:52;11.72;89.27
76857;DHT22;69705;44.686;37.628;2024-01-07T04:58:18;11.74;89.25
76857;DHT22;69705;44.686;37.628;2024-01-07T05:00:45;11.78;89.19
76857;DHT22;69705;44.686;37.628;2024-01-07T05:03:12;11.71;89.48
76857;DHT22;69705;44.686;37.628;2024-01-07T05:05:39;11.73;89.47
76857;DHT22;69705;44.686;37.628;2024-01-07T05:08:05;11.76;89.23
76857;DHT22;69705;44.686;37.628;2024-01-07T05:10:32;11.76;89.12
76857;DHT22;69705;44.686;37.628;2024-01-07T05:12:59;11.76;88.89
76857;DHT22;69705;44.686;37.628;2024-01-07T05:15:31;11.73;88.84
76857;DHT22;69705;44.686;37.628;2024-01-07T05:17:59;11.74;88.71
76857;DHT22;69705;44.686;37.628;2024-01-07T05:20:26;11.74;88.64
76857;DHT22;69705;44.686;37.628;2024-01-07T05:22:52;11.75;88.38
76857;DHT22;69705;44.686;37.628;2024-01-07T05:25:19;11.75;88.36
76857;DHT22;69705;44.686;37.628;2024-01-07T05:27:46;11.77;88.44
76857;DHT22;69705;44.686;37.628;2024-01-07T05:30:13;11.77;88.51
76857;DHT22;69705;44.686;37.628;2024-01-07T05:32:40;11.76;88.63
76857;DHT22;69705;44.686;37.628;2024-01-07T05:35:07;11.78;88.42
76857;DHT22;69705;44.686;37.628;2024-01-07T05:37:34;11.82;88.36
76857;DHT22;69705;44.686;37.628;2024-01-07T05:40:01;11.84;88.27
76857;DHT22;69705;44.686;37.628;2024-01-07T05:42:28;11.85;88.15
76857;DHT22;69705;44.686;37.628;2024-01-07T05:44:54;11.90;87.96
76857;DHT22;69705;44.686;37.628;2024-01-07T05:47:21;11.90;87.93
76857;DHT22;69705;44.686;37.628;2024-01-07T05:49:47;11.93;87.43
76857;DHT22;69705;44.686;37.628;2024-01-07T05:52:14;11.96;87.45
76857;DHT22;69705;44.686;37.628;2024-01-07T05:54:41;12.00;87.21
76857;DHT22;69705;44.686;37.628;2024-01-07T05:57:07;12.02;86.76
76857;DHT22;69705;44.686;37.628;2024-01-07T05:59:34;12.05;86.83
76857;DHT22;69705;44.686;37.628;2024-01-07T06:02:00;12.08;86.54
76857;DHT22;69705;44.686;37.628;2024-01-07T06:04:27;12.12;86.12
76857;DHT22;69705;44.686;37.628;2024-01-07T06:06:54;12.13;85.97
76857;DHT22;69705;44.686;37.628;2024-01-07T06:09:20;12.14;85.90
76857;DHT22;69705;44.686;37.628;2024-01-07T06:11:47;12.19;85.59
76857;DHT22;69705;44.686;37.628;2024-01-07T06:14:14;12.23;84.97
76857;DHT22;69705;44.686;37.628;2024-01-07T06:16:41;12.27;84.64
76857;DHT22;69705;44.686;37.628;2024-01-07T06:19:08;12.32;84.48
76857;DHT22;69705;44.686;37.628;2024-01-07T06:21:35;12.36;84.34
76857;DHT22;69705;44.686;37.628;2024-01-07T06:24:02;12.43;84.10
76857;DHT22;69705;44.686;37.628;2024-01-07T06:26:28;12.49;83.56
76857;DHT22;69705;44.686;37.628;2024-01-07T06:28:55;12.53;83.19
76857;DHT22;69705;44.686;37.628;2024-01-07T06:31:23;12.56;82.65
76857;DHT22;69705;44.686;37.628;2024-01-07T06:33:51;12.59;82.61
76857;DHT22;69705;44.686;37.628;2024-01-07T06:36:18;12.64;82.51
76857;DHT22;69705;44.686;37.628;2024-01-07T06:38:45;12.69;82.10
76857;DHT22;69705;44.686;37.628;2024-01-07T06:41:12;12.72;82.13
76857;DHT22;69705;44.686;37.628;2024-01-07T06:43:39;12.78;81.75
76857;DHT22;69705;44.686;37.628;2024-01-07T06:46:06;12.82;81.79
76857;DHT22;69705;44.686;37.628;2024-01-07T06:48:33;12.84;81.16
76857;DHT22;69705;44.686;37.628;2024-01-07T06:51:00;12.85;80.91
76857;DHT22;69705;44.686;37.628;2024-01-07T06:53:27;12.87;81.06
76857;DHT22;69705;44.686;37.628;2024-01-07T06:55:54;12.90;80.91
76857;DHT22;69705;44.686;37.628;2024-01-07T06:58:21;12.95;80.69
76857;DHT22;69705;44.686;37.628;2024-01-07T07:00:48;13.01;79.89
76857;DHT22;69705;44.686;37.628;2024-01-07T07:03:15;13.07;80.03
76857;DHT22;69705;44.686;37.628;2024-01-07T07:05:41;13.14;79.53
76857;DHT22;69705;44.686;37.628;2024-01-07T07:08:08;13.18;79.44
76857;DHT22;69705;44.686;37.628;2024-01-07T07:10:35;13.18;78.79
76857;DHT22;69705;44.686;37.628;2024-01-07T07:13:02;13.16;78.99
76857;DHT22;69705;44.686;37.628;2024-01-07T07:15:29;13.20;78.80
76857;DHT22;69705;44.686;37.628;2024-01-07T07:17:56;13.24;78.80
76857;DHT22;69705;44.686;37.628;2024-01-07T07:20:23;13.29;78.39
76857;DHT22;69705;44.686;37.628;2024-01-07T07:22:50;13.24;78.16
76857;DHT22;69705;44.686;37.628;2024-01-07T07:25:18;13.26;77.85
76857;DHT22;69705;44.686;37.628;2024-01-07T07:27:45;13.24;78.51
76857;DHT22;69705;44.686;37.628;2024-01-07T07:30:12;13.29;78.31
76857;DHT22;69705;44.686;37.628;2024-01-07T07:32:40;13.29;77.64
76857;DHT22;69705;44.686;37.628;2024-01-07T07:35:08;13.32;78.33
76857;DHT22;69705;44.686;37.628;2024-01-07T07:37:34;13.32;77.30
76857;DHT22;69705;44.686;37.628;2024-01-07T07:40:01;13.31;77.70
76857;DHT22;69705;44.686;37.628;2024-01-07T07:42:29;13.37;77.38
76857;DHT22;69705;44.686;37.628;2024-01-07T07:44:56;13.44;77.15
76857;DHT22;69705;44.686;37.628;2024-01-07T07:47:22;13.48;76.76
76857;DHT22;69705;44.686;37.628;2024-01-07T07:49:49;13.51;76.44
76857;DHT22;69705;44.686;37.628;2024-01-07T07:52:16;13.56;75.93
76857;DHT22;69705;44.686;37.628;2024-01-07T07:54:48;13.56;76.31
76857;DHT22;69705;44.686;37.628;2024-01-07T07:57:15;13.60;76.62
76857;DHT22;69705;44.686;37.628;2024-01-07T07:59:41;13.64;75.90
76857;DHT22;69705;44.686;37.628;2024-01-07T08:02:08;13.63;76.15
76857;DHT22;69705;44.686;37.628;2024-01-07T08:04:35;13.63;75.86
76857;DHT22;69705;44.686;37.628;2024-01-07T08:07:02;13.62;76.49
76857;DHT22;69705;44.686;37.628;2024-01-07T08:09:28;13.62;76.18
76857;DHT22;69705;44.686;37.628;2024-01-07T08:11:55;13.60;75.44
76857;DHT22;69705;44.686;37.628;2024-01-07T08:14:22;13.61;76.16
76857;DHT22;69705;44.686;37.628;2024-01-07T08:16:49;13.68;76.01
76857;DHT22;69705;44.686;37.628;2024-01-07T08:19:15;13.74;75.46
76857;DHT22;69705;44.686;37.628;2024-01-07T08:21:42;13.78;74.91
76857;DHT22;69705;44.686;37.628;2024-01-07T08:24:09;13.89;75.32
76857;DHT22;69705;44.686;37.628;2024-01-07T08:26:37;14.01;73.95
76857;DHT22;69705;44.686;37.628;2024-01-07T08:29:04;14.05;74.47
76857;DHT22;69705;44.686;37.628;2024-01-07T08:31:32;14.13;73.09
76857;DHT22;69705;44.686;37.628;2024-01-07T08:33:59;14.09;73.28
76857;DHT22;69705;44.686;37.628;2024-01-07T08:36:26;14.05;72.99
76857;DHT22;69705;44.686;37.628;2024-01-07T08:38:52;14.00;73.30
76857;DHT22;69705;44.686;37.628;2024-01-07T08:41:19;14.07;72.68
76857;DHT22;69705;44.686;37.628;2024-01-07T08:43:46;14.12;73.17
76857;DHT22;69705;44.686;37.628;2024-01-07T08:46:12;14.20;73.06
76857;DHT22;69705;44.686;37.628;2024-01-07T08:48:40;14.32;71.42
76857;DHT22;69705;44.686;37.628;2024-01-07T08:51:06;14.41;71.48
76857;DHT22;69705;44.686;37.628;2024-01-07T08:53:33;14.51;71.00
76857;DHT22;69705;44.686;37.628;2024-01-07T08:56:00;14.52;70.26
76857;DHT22;69705;44.686;37.628;2024-01-07T08:58:27;14.48;70.18
76857;DHT22;69705;44.686;37.628;2024-01-07T09:00:53;14.44;70.77
76857;DHT22;69705;44.686;37.628;2024-01-07T09:03:20;14.54;71.12
76857;DHT22;69705;44.686;37.628;2024-01-07T09:05:46;14.59;70.52
76857;DHT22;69705;44.686;37.628;2024-01-07T09:08:13;14.65;69.97
76857;DHT22;69705;44.686;37.628;2024-01-07T09:10:41;14.60;69.73
76857;DHT22;69705;44.686;37.628;2024-01-07T09:13:07;14.66;74.72
76857;DHT22;69705;44.686;37.628;2024-01-07T09:15:34;14.77;69.44
76857;DHT22;69705;44.686;37.628;2024-01-07T09:18:00;14.86;68.94
76857;DHT22;69705;44.686;37.628;2024-01-07T09:20:27;14.96;68.50
76857;DHT22;69705;44.686;37.628;2024-01-07T09:22:54;15.00;68.82
76857;DHT22;69705;44.686;37.628;2024-01-07T09:25:20;15.06;68.09
76857;DHT22;69705;44.686;37.628;2024-01-07T09:27:47;15.07;67.01
76857;DHT22;69705;44.686;37.628;2024-01-07T09:30:14;14.95;68.35
76857;DHT22;69705;44.686;37.628;2024-01-07T09:32:42;14.85;69.05
76857;DHT22;69705;44.686;37.628;2024-01-07T09:35:09;15.10;68.77
76857;DHT22;69705;44.686;37.628;2024-01-07T09:37:36;15.30;66.67
76857;DHT22;69705;44.686;37.628;2024-01-07T09:40:03;15.49;67.01
76857;DHT22;69705;44.686;37.628;2024-01-07T09:42:33;15.73;66.22
76857;DHT22;69705;44.686;37.628;2024-01-07T09:45:02;15.69;66.09
76857;DHT22;69705;44.686;37.628;2024-01-07T09:47:32;15.78;66.00
76857;DHT22;69705;44.686;37.628;2024-01-07T09:49:59;15.91;64.95
76857;DHT22;69705;44.686;37.628;2024-01-07T09:52:26;16.02;65.87
76857;DHT22;69705;44.686;37.628;2024-01-07T09:55:00;15.87;64.71
76857;DHT22;69705;44.686;37.628;2024-01-07T09:57:29;15.86;66.00
76857;DHT22;69705;44.686;37.628;2024-01-07T09:59:56;15.87;64.97
76857;DHT22;69705;44.686;37.628;2024-01-07T10:02:23;15.98;64.45
76857;DHT22;69705;44.686;37.628;2024-01-07T10:04:50;16.02;63.42
76857;DHT22;69705;44.686;37.628;2024-01-07T10:07:18;16.07;63.78
76857;DHT22;69705;44.686;37.628;2024-01-07T10:09:45;16.14;63.58
76857;DHT22;69705;44.686;37.628;2024-01-07T10:12:13;16.19;64.15
76857;DHT22;69705;44.686;37.628;2024-01-07T10:14:40;16.29;64.39
76857;DHT22;69705;44.686;37.628;2024-01-07T10:17:16;16.42;63.76
76857;DHT22;69705;44.686;37.628;2024-01-07T10:19:44;16.56;62.88
76857;DHT22;69705;44.686;37.628;2024-01-07T10:22:13;16.64;64.11
76857;DHT22;69705;44.686;37.628;2024-01-07T10:24:41;16.60;64.87
76857;DHT22;69705;44.686;37.628;2024-01-07T10:27:09;16.64;63.24
76857;DHT22;69705;44.686;37.628;2024-01-07T10:29:37;16.71;61.79
76857;DHT22;69705;44.686;37.628;2024-01-07T10:32:05;16.67;62.02
76857;DHT22;69705;44.686;37.628;2024-01-07T10:34:34;16.67;63.47
76857;DHT22;69705;44.686;37.628;2024-01-07T10:37:03;16.66;64.66
76857;DHT22;69705;44.686;37.628;2024-01-07T10:39:31;16.75;61.57
76857;DHT22;69705;44.686;37.628;2024-01-07T10:41:59;16.86;61.27
76857;DHT22;69705;44.686;37.628;2024-01-07T10:44:30;16.78;62.26
76857;DHT22;69705;44.686;37.628;2024-01-07T10:46:58;16.85;63.19
76857;DHT22;69705;44.686;37.628;2024-01-07T10:49:27;17.05;60.34
76857;DHT22;69705;44.686;37.628;2024-01-07T10:52:05;16.91;63.19
76857;DHT22;69705;44.686;37.628;2024-01-07T10:54:34;16.91;61.03
76857;DHT22;69705;44.686;37.628;2024-01-07T10:57:13;16.89;61.69
76857;DHT22;69705;44.686;37.628;2024-01-07T10:59:45;16.96;62.56
76857;DHT22;69705;44.686;37.628;2024-01-07T11:02:13;17.05;62.78
76857;DHT22;69705;44.686;37.628;2024-01-07T11:07:35;17.23;60.09
76857;DHT22;69705;44.686;37.628;2024-01-07T11:10:22;17.06;61.25
76857;DHT22;69705;44.686;37.628;2024-01-07T11:12:55;17.02;60.13
76857;DHT22;69705;44.686;37.628;2024-01-07T11:18:20;16.94;61.00
76857;DHT22;69705;44.686;37.628;2024-01-07T11:20:47;16.98;61.42
76857;DHT22;69705;44.686;37.628;2024-01-07T11:23:31;16.82;61.67
76857;DHT22;69705;44.686;37.628;2024-01-07T11:26:00;16.78;61.09
76857;DHT22;69705;44.686;37.628;2024-01-07T11:28:47;16.75;62.21
76857;DHT22;69705;44.686;37.628;2024-01-07T11:31:18;16.82;61.87
76857;DHT22;69705;44.686;37.628;2024-01-07T11:33:46;16.90;61.93
76857;DHT22;69705;44.686;37.628;2024-01-07T11:36:15;16.91;61.51
76857;DHT22;69705;44.686;37.628;2024-01-07T11:38:48;16.93;61.81
76857;DHT22;69705;44.686;37.628;2024-01-07T11:41:16;16.90;61.68
76857;DHT22;69705;44.686;37.628;2024-01-07T11:43:54;16.98;62.89
76857;DHT22;69705;44.686;37.628;2024-01-07T11:46:22;16.81;61.83
76857;DHT22;69705;44.686;37.628;2024-01-07T11:48:53;16.69;64.08
76857;DHT22;69705;44.686;37.628;2024-01-07T11:51:25;16.63;64.01
76857;DHT22;69705;44.686;37.628;2024-01-07T11:53:53;16.56;62.82
76857;DHT22;69705;44.686;37.628;2024-01-07T11:56:20;16.28;63.63
76857;DHT22;69705;44.686;37.628;2024-01-07T11:58:47;16.36;63.91
76857;DHT22;69705;44.686;37.628;2024-01-07T12:01:18;16.34;63.91
76857;DHT22;69705;44.686;37.628;2024-01-07T12:03:46;16.33;63.52
76857;DHT22;69705;44.686;37.628;2024-01-07T12:06:13;16.29;64.98
76857;DHT22;69705;44.686;37.628;2024-01-07T12:08:41;15.97;64.78
76857;DHT22;69705;44.686;37.628;2024-01-07T12:11:11;15.91;65.39
76857;DHT22;69705;44.686;37.628;2024-01-07T12:13:39;15.69;65.23
76857;DHT22;69705;44.686;37.628;2024-01-07T12:16:07;15.67;66.72
76857;DHT22;69705;44.686;37.628;2024-01-07T12:18:39;15.69;66.61
76857;DHT22;69705;44.686;37.628;2024-01-07T12:21:06;15.65;67.62
76857;DHT22;69705;44.686;37.628;2024-01-07T12:23:37;15.70;67.30
76857;DHT22;69705;44.686;37.628;2024-01-07T12:26:08;15.67;67.66
76857;DHT22;69705;44.686;37.628;2024-01-07T12:28:37;15.59;67.25
76857;DHT22;69705;44.686;37.628;2024-01-07T12:31:04;15.66;66.53
76857;DHT22;69705;44.686;37.628;2024-01-07T12:33:31;15.67;67.40
76857;DHT22;69705;44.686;37.628;2024-01-07T12:36:00;15.57;67.08
76857;DHT22;69705;44.686;37.628;2024-01-07T12:38:27;15.47;67.77
76857;DHT22;69705;44.686;37.628;2024-01-07T12:40:54;15.55;67.21
76857;DHT22;69705;44.686;37.628;2024-01-07T12:43:21;15.51;67.73
76857;DHT22;69705;44.686;37.628;2024-01-07T12:45:49;15.43;68.76
76857;DHT22;69705;44.686;37.628;2024-01-07T12:48:16;15.44;68.12
76857;DHT22;69705;44.686;37.628;2024-01-07T12:50:42;15.43;68.06
76857;DHT22;69705;44.686;37.628;2024-01-07T12:53:09;15.44;67.85
76857;DHT22;69705;44.686;37.628;2024-01-07T12:55:36;15.39;68.56
76857;DHT22;69705;44.686;37.628;2024-01-07T12:58:03;15.25;69.02
76857;DHT22;69705;44.686;37.628;2024-01-07T13:00:29;15.19;69.28
76857;DHT22;69705;44.686;37.628;2024-01-07T13:02:56;15.02;70.04
76857;DHT22;69705;44.686;37.628;2024-01-07T13:05:23;14.78;70.71
76857;DHT22;69705;44.686;37.628;2024-01-07T13:07:49;14.62;70.93
76857;DHT22;69705;44.686;37.628;2024-01-07T13:10:16;14.41;71.84
76857;DHT22;69705;44.686;37.628;2024-01-07T13:12:43;14.41;71.82
76857;DHT22;69705;44.686;37.628;2024-01-07T13:15:10;14.28;73.04
76857;DHT22;69705;44.686;37.628;2024-01-07T13:17:37;14.21;72.44
76857;DHT22;69705;44.686;37.628;2024-01-07T13:20:04;14.22;72.36
76857;DHT22;69705;44.686;37.628;2024-01-07T13:22:33;14.20;73.04
76857;DHT22;69705;44.686;37.628;2024-01-07T13:25:00;14.11;72.90
76857;DHT22;69705;44.686;37.628;2024-01-07T13:27:27;13.95;73.80
76857;DHT22;69705;44.686;37.628;2024-01-07T13:29:54;13.91;73.92
76857;DHT22;69705;44.686;37.628;2024-01-07T13:32:21;13.83;74.63
76857;DHT22;69705;44.686;37.628;2024-01-07T13:34:48;13.80;74.88
76857;DHT22;69705;44.686;37.628;2024-01-07T13:37:15;13.71;75.41
76857;DHT22;69705;44.686;37.628;2024-01-07T13:39:42;13.73;75.18
76857;DHT22;69705;44.686;37.628;2024-01-07T13:42:09;13.67;75.54
76857;DHT22;69705;44.686;37.628;2024-01-07T13:44:36;13.67;75.82
76857;DHT22;69705;44.686;37.628;2024-01-07T13:47:11;13.60;75.99
76857;DHT22;69705;44.686;37.628;2024-01-07T13:49:38;13.58;76.31
76857;DHT22;69705;44.686;37.628;2024-01-07T13:52:05;13.58;76.44
76857;DHT22;69705;44.686;37.628;2024-01-07T13:54:32;13.54;76.62
76857;DHT22;69705;44.686;37.628;2024-01-07T13:57:00;13.44;77.44
76857;DHT22;69705;44.686;37.628;2024-01-07T13:59:27;13.36;77.74
76857;DHT22;69705;44.686;37.628;2024-01-07T14:01:55;13.31;78.01
76857;DHT22;69705;44.686;37.628;2024-01-07T14:04:24;13.29;78.23
76857;DHT22;69705;44.686;37.628;2024-01-07T14:06:55;13.29;78.50
76857;DHT22;69705;44.686;37.628;2024-01-07T14:09:24;13.29;78.63
76857;DHT22;69705;44.686;37.628;2024-01-07T14:11:52;13.27;78.84
76857;DHT22;69705;44.686;37.628;2024-01-07T14:14:19;13.29;79.32
76857;DHT22;69705;44.686;37.628;2024-01-07T14:16:46;13.17;80.01
76857;DHT22;69705;44.686;37.628;2024-01-07T14:19:13;13.14;79.90
76857;DHT22;69705;44.686;37.628;2024-01-07T14:21:41;13.12;79.58
76857;DHT22;69705;44.686;37.628;2024-01-07T14:24:08;13.10;80.31
76857;DHT22;69705;44.686;37.628;2024-01-07T14:26:35;13.04;79.98
76857;DHT22;69705;44.686;37.628;2024-01-07T14:29:02;13.03;80.39
76857;DHT22;69705;44.686;37.628;2024-01-07T14:31:31;13.01;80.16
76857;DHT22;69705;44.686;37.628;2024-01-07T14:33:58;12.99;80.06
76857;DHT22;69705;44.686;37.628;2024-01-07T14:36:24;12.86;80.66
76857;DHT22;69705;44.686;37.628;2024-01-07T14:38:53;12.80;80.64
76857;DHT22;69705;44.686;37.628;2024-01-07T14:41:19;12.86;80.65
76857;DHT22;69705;44.686;37.628;2024-01-07T14:43:46;12.85;80.44
76857;DHT22;69705;44.686;37.628;2024-01-07T14:46:13;12.84;80.33
76857;DHT22;69705;44.686;37.628;2024-01-07T14:48:39;12.84;80.22
76857;DHT22;69705;44.686;37.628;2024-01-07T14:51:06;12.84;80.20
76857;DHT22;69705;44.686;37.628;2024-01-07T14:53:33;12.82;80.14
76857;DHT22;69705;44.686;37.628;2024-01-07T14:55:59;12.81;80.42
76857;DHT22;69705;44.686;37.628;2024-01-07T14:58:26;12.77;80.72
76857;DHT22;69705;44.686;37.628;2024-01-07T15:00:53;12.76;80.38
76857;DHT22;69705;44.686;37.628;2024-01-07T15:03:19;12.74;80.42
76857;DHT22;69705;44.686;37.628;2024-01-07T15:05:48;12.75;80.29
76857;DHT22;69705;44.686;37.628;2024-01-07T15:08:14;12.66;81.09
76857;DHT22;69705;44.686;37.628;2024-01-07T15:10:41;12.49;81.44
76857;DHT22;69705;44.686;37.628;2024-01-07T15:13:08;12.51;80.98
76857;DHT22;69705;44.686;37.628;2024-01-07T15:15:36;12.61;80.69
76857;DHT22;69705;44.686;37.628;2024-01-07T15:18:03;12.61;80.86
76857;DHT22;69705;44.686;37.628;2024-01-07T15:20:30;12.48;81.55
76857;DHT22;69705;44.686;37.628;2024-01-07T15:22:57;12.44;81.45